createdAt,value
2023-04-08T00:01:57.512Z,2.53
2023-04-08T00:04:26.523Z,2.30
2023-04-08T00:06:53.952Z,2.47
2023-04-08T00:09:21.328Z,2.30
2023-04-08T00:11:48.702Z,2.10
2023-04-08T00:14:16.191Z,2.30
2023-04-08T00:16:43.613Z,2.30
2023-04-08T00:19:11.504Z,2.30
2023-04-08T00:21:40.592Z,2.43
2023-04-08T00:24:08.050Z,2.70
2023-04-08T00:26:35.444Z,2.47
2023-04-08T00:29:02.892Z,2.40
2023-04-08T00:31:30.383Z,2.50
2023-04-08T00:34:00.493Z,2.50
2023-04-08T00:36:28.110Z,2.60
2023-04-08T00:38:57.428Z,2.80
2023-04-08T00:41:24.843Z,2.70
2023-04-08T00:43:53.005Z,2.53
2023-04-08T00:46:20.429Z,2.60
2023-04-08T00:48:48.120Z,2.60
2023-04-08T00:51:16.158Z,2.67
2023-04-08T00:53:43.542Z,2.67
2023-04-08T00:56:12.292Z,2.50
2023-04-08T00:58:39.963Z,2.30
2023-04-08T01:01:11.078Z,2.20
2023-04-08T01:03:44.017Z,2.40
2023-04-08T01:06:14.331Z,2.37
2023-04-08T01:08:42.924Z,2.47
2023-04-08T01:11:14.686Z,2.20
2023-04-08T01:13:43.446Z,2.30
2023-04-08T01:16:12.186Z,2.50
2023-04-08T01:18:39.766Z,2.60
2023-04-08T01:21:07.662Z,2.30
2023-04-08T01:23:40.004Z,2.50
2023-04-08T01:26:11.131Z,2.43
2023-04-08T01:28:40.195Z,2.53
2023-04-08T01:31:08.331Z,2.43
2023-04-08T01:33:36.729Z,2.70
2023-04-08T01:36:04.562Z,2.40
2023-04-08T01:38:32.732Z,2.50
2023-04-08T01:41:00.436Z,2.60
2023-04-08T01:43:32.190Z,2.43
2023-04-08T01:45:59.939Z,2.70
2023-04-08T01:48:27.949Z,2.70
2023-04-08T01:50:55.820Z,2.70
2023-04-08T01:53:23.405Z,2.70
2023-04-08T01:55:53.155Z,2.63
2023-04-08T01:58:22.326Z,2.73
2023-04-08T02:00:52.577Z,2.70
2023-04-08T02:03:21.395Z,2.53
2023-04-08T02:05:49.129Z,2.40
2023-04-08T02:08:16.513Z,2.73
2023-04-08T02:10:43.938Z,3.00
2023-04-08T02:13:11.337Z,2.83
2023-04-08T02:15:41.211Z,3.20
2023-04-08T02:18:14.315Z,3.10
2023-04-08T02:20:45.884Z,3.40
2023-04-08T02:23:16.264Z,3.17
2023-04-08T02:25:45.347Z,3.17
2023-04-08T02:28:12.889Z,3.23
2023-04-08T02:30:43.248Z,3.30
2023-04-08T02:33:12.428Z,3.40
2023-04-08T02:35:41.392Z,3.63
2023-04-08T02:38:10.249Z,3.70
2023-04-08T02:40:38.653Z,3.73
2023-04-08T02:43:06.186Z,3.73
2023-04-08T02:45:36.146Z,3.77
2023-04-08T02:48:03.589Z,3.87
2023-04-08T02:50:32.428Z,4.00
2023-04-08T02:52:59.905Z,4.03
2023-04-08T02:55:27.429Z,3.90
2023-04-08T02:57:55.074Z,3.97
2023-04-08T03:00:22.666Z,4.40
2023-04-08T03:02:50.204Z,4.27
2023-04-08T03:05:17.760Z,4.33
2023-04-08T03:07:46.452Z,4.20
2023-04-08T03:10:13.876Z,4.30
2023-04-08T03:12:41.270Z,4.00
2023-04-08T03:15:09.024Z,4.03
2023-04-08T03:17:36.453Z,4.40
2023-04-08T03:20:04.806Z,4.97
2023-04-08T03:22:32.262Z,4.53
2023-04-08T03:25:01.056Z,4.30
2023-04-08T03:27:28.471Z,4.37
2023-04-08T03:29:57.652Z,4.70
2023-04-08T03:32:25.169Z,4.50
2023-04-08T03:34:52.681Z,4.03
2023-04-08T03:37:20.251Z,4.97
2023-04-08T03:39:47.655Z,4.87
2023-04-08T03:42:16.524Z,5.23
2023-04-08T03:44:43.889Z,5.13
2023-04-08T03:47:11.322Z,5.10
2023-04-08T03:49:38.689Z,5.17
2023-04-08T03:52:06.165Z,5.40
2023-04-08T03:54:33.603Z,5.27
2023-04-08T03:57:00.980Z,5.70
2023-04-08T03:59:30.034Z,5.67
2023-04-08T04:01:57.467Z,5.50
2023-04-08T04:04:25.040Z,5.83
2023-04-08T04:06:52.501Z,5.53
2023-04-08T04:09:19.876Z,5.60
2023-04-08T04:11:47.212Z,4.93
2023-04-08T04:14:14.644Z,5.70
2023-04-08T04:16:43.437Z,4.97
2023-04-08T04:19:10.935Z,5.50
2023-04-08T04:21:38.288Z,5.37
2023-04-08T04:24:05.978Z,5.20
2023-04-08T04:26:33.352Z,5.40
2023-04-08T04:29:01.014Z,5.57
2023-04-08T04:31:28.434Z,4.90
2023-04-08T04:33:57.231Z,5.07
2023-04-08T04:36:24.930Z,4.83
2023-04-08T04:38:52.692Z,5.30
2023-04-08T04:41:21.746Z,5.07
2023-04-08T04:43:49.164Z,5.73
2023-04-08T04:46:16.643Z,5.20
2023-04-08T04:48:44.035Z,5.60
2023-04-08T04:51:12.747Z,5.47
2023-04-08T04:53:40.168Z,6.00
2023-04-08T04:56:07.812Z,5.40
2023-04-08T04:58:35.288Z,5.17
2023-04-08T05:01:02.806Z,5.60
2023-04-08T05:03:30.358Z,5.60
2023-04-08T05:05:57.732Z,6.10
2023-04-08T05:08:27.968Z,6.27
2023-04-08T05:10:56.409Z,6.20
2023-04-08T05:13:23.795Z,6.70
2023-04-08T05:15:51.270Z,7.40
2023-04-08T05:18:18.709Z,8.40
2023-04-08T05:20:46.498Z,7.63
2023-04-08T05:23:13.887Z,7.87
2023-04-08T05:25:42.588Z,7.80
2023-04-08T05:28:09.991Z,7.27
2023-04-08T05:30:37.377Z,7.00
2023-04-08T05:33:04.845Z,7.00
2023-04-08T05:35:32.447Z,6.30
2023-04-08T05:37:59.842Z,6.70
2023-04-08T05:40:27.292Z,6.33
2023-04-08T05:42:56.000Z,7.20
2023-04-08T05:45:23.352Z,6.57
2023-04-08T05:47:50.863Z,6.93
2023-04-08T05:50:18.266Z,7.37
2023-04-08T05:52:46.012Z,7.83
2023-04-08T05:55:13.916Z,8.10
2023-04-08T05:57:41.295Z,7.70
2023-04-08T06:00:10.981Z,8.17
2023-04-08T06:02:39.006Z,8.07
2023-04-08T06:05:07.139Z,7.60
2023-04-08T06:07:35.469Z,8.43
2023-04-08T06:10:05.119Z,7.70
2023-04-08T06:12:32.824Z,7.93
2023-04-08T06:15:00.183Z,7.67
2023-04-08T06:17:29.220Z,8.10
2023-04-08T06:19:56.712Z,8.37
2023-04-08T06:22:24.088Z,8.20
2023-04-08T06:24:51.445Z,8.30
2023-04-08T06:27:19.364Z,9.10
2023-04-08T06:29:47.088Z,8.63
2023-04-08T06:32:14.488Z,8.63
2023-04-08T06:34:43.269Z,8.60
2023-04-08T06:37:10.647Z,9.23
2023-04-08T06:39:38.043Z,9.37
2023-04-08T06:42:06.204Z,8.80
2023-04-08T06:44:40.569Z,7.70
2023-04-08T06:47:07.957Z,8.03
2023-04-08T06:49:35.351Z,8.97
2023-04-08T06:52:04.094Z,9.73
2023-04-08T06:54:31.473Z,9.20
2023-04-08T06:56:58.863Z,10.10
2023-04-08T06:59:26.202Z,9.70
2023-04-08T07:01:53.686Z,9.53
2023-04-08T07:04:21.580Z,9.87
2023-04-08T07:06:49.014Z,9.07
2023-04-08T07:09:17.778Z,9.90
2023-04-08T07:11:45.208Z,10.07
2023-04-08T07:14:12.983Z,9.77
2023-04-08T07:16:40.443Z,10.07
2023-04-08T07:19:08.035Z,9.37
2023-04-08T07:21:35.651Z,9.30
2023-04-08T07:24:03.051Z,9.40
2023-04-08T07:26:31.796Z,9.17
2023-04-08T07:28:59.136Z,9.43
2023-04-08T07:31:27.113Z,9.43
2023-04-08T07:33:54.519Z,10.10
2023-04-08T07:36:22.017Z,9.50
2023-04-08T07:38:49.560Z,9.50
2023-04-08T07:41:17.096Z,8.57
2023-04-08T07:43:46.007Z,8.90
2023-04-08T07:46:13.551Z,9.17
2023-04-08T07:48:40.942Z,9.33
2023-04-08T07:51:11.108Z,8.80
2023-04-08T07:53:39.440Z,8.60
2023-04-08T07:56:11.654Z,8.53
2023-04-08T07:58:40.298Z,8.90
2023-04-08T08:01:17.880Z,8.23
2023-04-08T08:03:45.905Z,8.17
2023-04-08T08:06:13.481Z,8.80
2023-04-08T08:08:40.918Z,8.50
2023-04-08T08:11:08.330Z,8.33
2023-04-08T08:13:35.986Z,8.63
2023-04-08T08:16:03.456Z,8.90
2023-04-08T08:18:32.218Z,8.90
2023-04-08T08:21:02.730Z,8.70
2023-04-08T08:23:30.326Z,8.43
2023-04-08T08:26:01.020Z,8.53
2023-04-08T08:28:28.402Z,8.77
2023-04-08T08:30:55.805Z,8.50
2023-04-08T08:33:23.360Z,9.10
2023-04-08T08:35:52.481Z,9.23
2023-04-08T08:38:19.898Z,8.53
2023-04-08T08:40:47.491Z,9.43
2023-04-08T08:43:14.932Z,8.27
2023-04-08T08:45:42.338Z,8.77
2023-04-08T08:48:10.038Z,8.27
2023-04-08T08:50:37.575Z,9.50
2023-04-08T08:53:06.292Z,9.80
2023-04-08T08:55:56.809Z,9.77
2023-04-08T08:58:21.422Z,9.27
2023-04-08T09:00:48.852Z,8.67
2023-04-08T09:03:17.380Z,9.23
2023-04-08T09:05:51.866Z,9.03
2023-04-08T09:08:31.169Z,8.90
2023-04-08T09:11:11.726Z,10.47
2023-04-08T09:13:39.219Z,9.17
2023-04-08T09:16:08.991Z,9.17
2023-04-08T09:18:37.086Z,9.43
2023-04-08T09:21:05.872Z,9.37
2023-04-08T09:23:44.424Z,9.23
2023-04-08T09:26:12.804Z,9.13
2023-04-08T09:28:40.860Z,10.00
2023-04-08T09:31:19.194Z,9.60
2023-04-08T09:33:47.275Z,10.17
2023-04-08T09:36:15.310Z,9.70
2023-04-08T09:38:44.025Z,9.80
2023-04-08T09:41:14.023Z,9.67
2023-04-08T09:43:43.270Z,10.03
2023-04-08T09:46:12.528Z,10.23
2023-04-08T09:48:41.264Z,9.70
2023-04-08T09:51:09.193Z,9.40
2023-04-08T09:53:38.946Z,8.83
2023-04-08T09:56:08.678Z,9.13
2023-04-08T09:58:40.012Z,8.87
2023-04-08T10:01:08.426Z,8.87
2023-04-08T10:03:37.992Z,9.10
2023-04-08T10:06:06.289Z,8.23
2023-04-08T10:08:33.886Z,8.50
2023-04-08T10:11:01.505Z,7.90
2023-04-08T10:13:30.478Z,8.23
2023-04-08T10:16:12.803Z,7.43
2023-04-08T10:18:40.412Z,7.70
2023-04-08T10:21:29.657Z,7.60
2023-04-08T10:23:59.596Z,6.83
2023-04-08T10:26:34.561Z,6.43
2023-04-08T10:29:21.241Z,6.77
2023-04-08T10:31:50.801Z,7.00
2023-04-08T10:34:18.374Z,7.70
2023-04-08T10:36:45.964Z,7.80
2023-04-08T10:39:14.318Z,8.43
2023-04-08T10:41:42.992Z,7.20
2023-04-08T10:44:16.508Z,8.10
2023-04-08T10:46:44.083Z,8.30
2023-04-08T10:49:12.818Z,7.67
2023-04-08T10:51:40.255Z,8.00
2023-04-08T10:54:08.346Z,8.77
2023-04-08T10:56:36.622Z,8.40
2023-04-08T10:59:04.353Z,9.17
2023-04-08T11:01:39.401Z,8.93
2023-04-08T11:04:08.512Z,9.23
2023-04-08T11:06:38.923Z,9.13
2023-04-08T11:09:06.318Z,9.77
2023-04-08T11:11:33.726Z,9.20
2023-04-08T11:14:01.428Z,8.40
2023-04-08T11:16:29.191Z,8.43
2023-04-08T11:18:56.953Z,8.53
2023-04-08T11:21:25.486Z,8.70
2023-04-08T11:23:54.421Z,9.00
2023-04-08T11:26:22.268Z,8.53
2023-04-08T11:28:51.465Z,8.40
2023-04-08T11:31:20.589Z,7.73
2023-04-08T11:33:50.336Z,8.23
2023-04-08T11:36:18.931Z,9.00
2023-04-08T11:38:47.852Z,8.87
2023-04-08T11:41:17.401Z,8.47
2023-04-08T11:43:54.703Z,8.63
2023-04-08T11:46:22.252Z,7.80
2023-04-08T11:49:02.643Z,7.77
2023-04-08T11:51:30.287Z,8.50
2023-04-08T11:53:58.101Z,8.00
2023-04-08T11:56:27.314Z,8.17
2023-04-08T11:58:54.743Z,8.20
2023-04-08T12:01:22.503Z,8.70
2023-04-08T12:03:57.260Z,7.63
2023-04-08T12:06:27.621Z,8.20
2023-04-08T12:08:55.753Z,8.90
2023-04-08T12:11:24.564Z,9.10
2023-04-08T12:13:53.770Z,8.77
2023-04-08T12:16:21.626Z,8.97
2023-04-08T12:18:50.060Z,8.80
2023-04-08T12:21:17.633Z,8.40
2023-04-08T12:23:45.085Z,7.90
2023-04-08T12:26:13.228Z,8.03
2023-04-08T12:28:40.656Z,7.57
2023-04-08T12:31:09.400Z,8.33
2023-04-08T12:33:36.870Z,7.67
2023-04-08T12:36:04.486Z,6.90
2023-04-08T12:38:31.955Z,8.40
2023-04-08T12:40:59.317Z,6.80
2023-04-08T12:43:26.730Z,6.83
2023-04-08T12:45:54.175Z,7.87
2023-04-08T12:48:22.848Z,7.80
2023-04-08T12:50:50.328Z,7.90
2023-04-08T12:53:20.004Z,8.53
2023-04-08T12:55:49.118Z,8.87
2023-04-08T12:58:17.582Z,8.47
2023-04-08T13:00:46.574Z,8.70
2023-04-08T13:03:17.157Z,8.87
2023-04-08T13:05:46.088Z,8.70
2023-04-08T13:08:13.624Z,8.00
2023-04-08T13:10:42.755Z,8.50
2023-04-08T13:13:10.162Z,8.80
2023-04-08T13:15:37.915Z,8.80
2023-04-08T13:18:05.701Z,8.90
2023-04-08T13:20:33.467Z,8.73
2023-04-08T13:23:02.639Z,8.40
2023-04-08T13:25:30.289Z,9.40
2023-04-08T13:27:57.721Z,8.33
2023-04-08T13:30:25.172Z,8.73
2023-04-08T13:32:52.683Z,8.63
2023-04-08T13:35:20.186Z,8.60
2023-04-08T13:37:47.563Z,8.83
2023-04-08T13:40:16.605Z,8.30
2023-04-08T13:42:44.050Z,9.33
2023-04-08T13:45:11.960Z,8.83
2023-04-08T13:47:39.379Z,8.67
2023-04-08T13:50:07.513Z,8.53
2023-04-08T13:52:34.988Z,8.53
2023-04-08T13:55:02.767Z,9.00
2023-04-08T13:57:31.612Z,8.30
2023-04-08T13:59:59.075Z,8.43
2023-04-08T14:02:26.618Z,8.50
2023-04-08T14:04:54.327Z,7.00
2023-04-08T14:07:21.891Z,7.17
2023-04-08T14:09:49.301Z,6.77
2023-04-08T14:12:16.711Z,6.27
2023-04-08T14:14:45.630Z,6.70
2023-04-08T14:17:13.107Z,6.10
2023-04-08T14:19:40.590Z,5.30
2023-04-08T14:22:07.996Z,4.47
2023-04-08T14:24:35.532Z,4.20
2023-04-08T14:27:03.545Z,4.10
2023-04-08T14:29:30.971Z,5.90
2023-04-08T14:31:59.697Z,6.23
2023-04-08T14:34:27.200Z,3.63
2023-04-08T14:36:54.578Z,3.20
2023-04-08T14:39:21.921Z,2.80
2023-04-08T14:41:49.340Z,2.50
2023-04-08T14:44:16.709Z,2.27
2023-04-08T14:46:44.206Z,2.60
2023-04-08T14:49:13.014Z,2.60
2023-04-08T14:51:40.390Z,2.70
2023-04-08T14:54:07.784Z,2.90
2023-04-08T14:56:36.052Z,2.70
2023-04-08T14:59:03.457Z,2.60
2023-04-08T15:01:32.257Z,4.67
2023-04-08T15:04:00.151Z,2.40
2023-04-08T15:06:29.674Z,4.17
2023-04-08T15:08:57.406Z,3.80
2023-04-08T15:11:24.789Z,3.80
2023-04-08T15:13:52.229Z,3.70
2023-04-08T15:16:19.644Z,4.40
2023-04-08T15:18:47.048Z,6.53
2023-04-08T15:21:14.449Z,5.53
2023-04-08T15:23:43.522Z,6.03
2023-04-08T15:26:10.982Z,6.50
2023-04-08T15:28:40.142Z,7.13
2023-04-08T15:31:07.621Z,7.90
2023-04-08T15:33:35.409Z,8.70
2023-04-08T15:36:04.047Z,9.73
2023-04-08T15:38:33.423Z,10.60
2023-04-08T15:41:02.175Z,10.30
2023-04-08T15:43:29.588Z,9.67
2023-04-08T15:45:56.984Z,10.13
2023-04-08T15:48:24.391Z,9.37
2023-04-08T15:50:51.970Z,9.47
2023-04-08T15:53:19.352Z,8.47
2023-04-08T15:55:46.779Z,8.60
2023-04-08T15:58:16.273Z,7.93
2023-04-08T16:00:43.644Z,8.60
2023-04-08T16:03:12.003Z,6.83
2023-04-08T16:05:41.468Z,7.20
2023-04-08T16:08:08.862Z,7.23
2023-04-08T16:10:36.338Z,6.43
2023-04-08T16:13:04.075Z,6.23
2023-04-08T16:15:34.036Z,6.07
2023-04-08T16:18:01.615Z,6.30
2023-04-08T16:20:29.159Z,7.00
2023-04-08T16:22:56.568Z,6.77
2023-04-08T16:25:24.254Z,7.50
2023-04-08T16:27:52.363Z,7.07
2023-04-08T16:30:19.907Z,6.70
2023-04-08T16:32:48.713Z,6.80
2023-04-08T16:35:17.651Z,6.60
2023-04-08T16:37:45.182Z,6.90
2023-04-08T16:40:13.061Z,6.50
2023-04-08T16:42:40.447Z,6.67
2023-04-08T16:45:08.492Z,6.47
2023-04-08T16:47:35.896Z,6.30
2023-04-08T16:50:05.351Z,6.13
2023-04-08T16:52:32.725Z,6.00
2023-04-08T16:55:00.176Z,6.10
2023-04-08T16:57:27.692Z,6.37
2023-04-08T16:59:55.132Z,6.10
2023-04-08T17:02:22.722Z,5.87
2023-04-08T17:04:50.479Z,5.50
2023-04-08T17:07:19.259Z,5.67
2023-04-08T17:09:51.182Z,5.93
2023-04-08T17:12:18.662Z,5.93
2023-04-08T17:14:46.120Z,5.97
2023-04-08T17:17:13.644Z,5.90
2023-04-08T17:19:41.714Z,5.03
2023-04-08T17:22:09.089Z,5.73
2023-04-08T17:24:38.020Z,6.10
2023-04-08T17:27:05.522Z,5.80
2023-04-08T17:29:32.966Z,6.47
2023-04-08T17:32:00.410Z,5.77
2023-04-08T17:34:29.103Z,6.03
2023-04-08T17:36:56.720Z,6.00
2023-04-08T17:39:32.253Z,6.43
2023-04-08T17:41:59.727Z,6.20
2023-04-08T17:44:29.579Z,6.90
2023-04-08T17:46:57.031Z,6.93
2023-04-08T17:49:24.498Z,5.97
2023-04-08T17:51:52.030Z,5.50
2023-04-08T17:54:19.409Z,5.53
2023-04-08T17:56:49.540Z,5.40
2023-04-08T17:59:17.072Z,5.70
2023-04-08T18:01:44.532Z,5.90
2023-04-08T18:04:12.426Z,5.60
2023-04-08T18:06:40.118Z,6.57
2023-04-08T18:09:07.804Z,6.17
2023-04-08T18:11:35.177Z,5.97
2023-04-08T18:14:03.911Z,6.10
2023-04-08T18:16:31.384Z,6.07
2023-04-08T18:18:58.779Z,6.77
2023-04-08T18:21:27.035Z,6.47
2023-04-08T18:23:54.670Z,7.03
2023-04-08T18:26:22.324Z,6.37
2023-04-08T18:28:49.765Z,6.53
2023-04-08T18:31:18.539Z,7.43
2023-04-08T18:33:45.956Z,7.13
2023-04-08T18:36:13.774Z,8.00
2023-04-08T18:38:41.784Z,7.43
2023-04-08T18:41:09.240Z,6.93
2023-04-08T18:43:36.705Z,7.27
2023-04-08T18:46:04.606Z,6.73
2023-04-08T18:48:33.610Z,6.00
2023-04-08T18:51:01.678Z,6.23
2023-04-08T18:53:29.455Z,5.83
2023-04-08T18:55:57.136Z,5.87
2023-04-08T18:58:24.532Z,6.37
2023-04-08T19:00:52.154Z,6.40
2023-04-08T19:03:19.620Z,6.40
2023-04-08T19:05:49.067Z,6.60
2023-04-08T19:08:16.449Z,6.97
2023-04-08T19:10:43.788Z,6.70
2023-04-08T19:13:11.161Z,8.20
2023-04-08T19:15:38.865Z,6.30
2023-04-08T19:18:06.790Z,6.37
2023-04-08T19:20:34.506Z,6.50
2023-04-08T19:23:03.394Z,6.40
2023-04-08T19:25:30.785Z,5.97
2023-04-08T19:27:58.274Z,6.83
2023-04-08T19:30:25.801Z,6.47
2023-04-08T19:32:53.668Z,6.90
2023-04-08T19:35:21.118Z,7.23
2023-04-08T19:37:48.514Z,8.50
2023-04-08T19:40:18.527Z,8.53
2023-04-08T19:42:46.236Z,8.40
2023-04-08T19:45:13.685Z,9.40
2023-04-08T19:47:42.210Z,9.03
2023-04-08T19:50:10.084Z,8.73
2023-04-08T19:52:37.483Z,8.37
2023-04-08T19:55:05.105Z,9.63
2023-04-08T19:57:34.160Z,9.63
2023-04-08T20:00:01.664Z,10.13
2023-04-08T20:02:29.153Z,10.63
2023-04-08T20:04:57.626Z,10.83
2023-04-08T20:07:25.129Z,11.80
2023-04-08T20:09:52.537Z,12.07
2023-04-08T20:12:19.971Z,11.70
2023-04-08T20:14:48.686Z,11.80
2023-04-08T20:17:16.411Z,12.77
2023-04-08T20:19:44.126Z,12.40
2023-04-08T20:22:11.528Z,12.20
2023-04-08T20:24:38.958Z,13.30
2023-04-08T20:27:06.440Z,13.40
2023-04-08T20:29:34.422Z,14.97
2023-04-08T20:32:03.199Z,14.83
2023-04-08T20:34:30.685Z,14.53
2023-04-08T20:36:58.073Z,14.80
2023-04-08T20:39:29.740Z,14.70
2023-04-08T20:41:57.944Z,15.47
2023-04-08T20:44:25.318Z,14.77
2023-04-08T20:46:52.896Z,15.30
2023-04-08T20:49:21.681Z,15.37
2023-04-08T20:51:49.078Z,13.83
2023-04-08T20:54:16.489Z,13.10
2023-04-08T20:56:43.860Z,12.93
2023-04-08T20:59:11.306Z,12.73
2023-04-08T21:01:38.762Z,12.40
2023-04-08T21:04:06.186Z,11.10
2023-04-08T21:06:37.395Z,11.33
2023-04-08T21:09:04.807Z,11.33
2023-04-08T21:11:32.156Z,10.80
2023-04-08T21:13:59.520Z,11.33
2023-04-08T21:16:28.920Z,10.60
2023-04-08T21:18:58.148Z,10.50
2023-04-08T21:21:25.647Z,11.67
2023-04-08T21:23:54.424Z,10.80
2023-04-08T21:26:21.897Z,11.20
2023-04-08T21:28:49.918Z,10.87
2023-04-08T21:31:17.639Z,11.67
2023-04-08T21:33:45.100Z,11.90
2023-04-08T21:36:12.559Z,11.57
2023-04-08T21:38:39.981Z,12.00
2023-04-08T21:41:08.760Z,11.33
2023-04-08T21:43:36.125Z,12.23
2023-04-08T21:46:03.545Z,12.27
2023-04-08T21:48:31.051Z,13.90
2023-04-08T21:50:58.417Z,11.97
2023-04-08T21:53:25.813Z,11.83
2023-04-08T21:55:53.204Z,12.30
2023-04-08T21:58:21.917Z,11.70
2023-04-08T22:00:50.578Z,12.73
2023-04-08T22:03:18.136Z,12.77
2023-04-08T22:05:45.636Z,12.30
2023-04-08T22:08:13.015Z,12.83
2023-04-08T22:10:40.528Z,12.67
2023-04-08T22:13:07.905Z,13.63
2023-04-08T22:15:36.757Z,12.40
2023-04-08T22:18:05.576Z,12.07
2023-04-08T22:20:33.035Z,11.77
2023-04-08T22:23:00.625Z,12.77
2023-04-08T22:25:28.000Z,12.77
2023-04-08T22:27:56.000Z,11.93
2023-04-08T22:30:23.448Z,12.37
2023-04-08T22:32:52.207Z,13.10
2023-04-08T22:35:19.640Z,12.40
2023-04-08T22:37:47.040Z,12.83
2023-04-08T22:40:14.532Z,13.30
2023-04-08T22:42:41.928Z,12.50
2023-04-08T22:45:09.519Z,12.70
2023-04-08T22:47:37.390Z,13.57
2023-04-08T22:50:07.284Z,12.93
2023-04-08T22:52:34.697Z,12.70
2023-04-08T22:55:02.133Z,13.70
2023-04-08T22:57:29.532Z,13.00
2023-04-08T22:59:56.961Z,13.73
2023-04-08T23:02:24.389Z,13.27
2023-04-08T23:04:54.168Z,13.20
2023-04-08T23:07:22.872Z,13.47
2023-04-08T23:09:50.448Z,13.50
2023-04-08T23:12:17.848Z,13.40
2023-04-08T23:14:45.201Z,13.40
2023-04-08T23:17:12.611Z,12.83
2023-04-08T23:19:42.260Z,13.17
2023-04-08T23:22:09.686Z,13.17
2023-04-08T23:24:38.443Z,13.77
2023-04-08T23:27:05.862Z,13.30
2023-04-08T23:29:33.246Z,13.27
2023-04-08T23:32:00.947Z,13.17
2023-04-08T23:34:28.450Z,14.33
2023-04-08T23:36:55.851Z,14.17
2023-04-08T23:39:23.247Z,13.40
2023-04-08T23:41:51.955Z,13.63
2023-04-08T23:44:19.315Z,14.00
2023-04-08T23:46:46.772Z,14.37
2023-04-08T23:49:14.238Z,14.53
2023-04-08T23:51:41.681Z,14.53
2023-04-08T23:54:09.110Z,14.53
2023-04-08T23:56:36.526Z,14.50
2023-04-08T23:59:05.259Z,14.63
